Time;durP1;ratioP1;P1;durP2;ratioP2;P2;SDS_P1;SDS_P2;PMS_P1;PMS_P2;Temp;Humidity;BMP_temperature;BMP_pressure;BME280_temperature;BME280_humidity;BME280_pressure;Samples;Min_cycle;Max_cycle;Signal;HPM_P1;HPM_P2
2021/03/04 00:00:20;;;;;;;105.90;40.28;;;3.30;97.60;;;;;;4932012;29;20067;-77
2021/03/04 00:02:46;;;;;;;100.78;38.03;;;3.30;97.50;;;;;;4950621;28;20059;-77
2021/03/04 00:05:13;;;;;;;95.97;36.33;;;3.30;97.70;;;;;;4949682;28;20195;-77
2021/03/04 00:07:40;;;;;;;109.57;38.85;;;3.30;97.60;;;;;;4952435;29;20063;-77
2021/03/04 00:10:14;;;;;;;88.38;35.72;;;3.40;97.70;;;;;;4950108;28;20035;-77
2021/03/04 00:12:41;;;;;;;98.00;35.22;;;3.40;97.60;;;;;;4935970;29;20412;-77
2021/03/04 00:15:09;;;;;;;88.60;34.83;;;3.40;97.60;;;;;;4950126;28;20063;-77
2021/03/04 00:17:35;;;;;;;81.10;33.85;;;3.30;97.70;;;;;;4934242;29;20055;-77
2021/03/04 00:20:01;;;;;;;91.43;34.55;;;3.40;97.60;;;;;;4950191;28;20035;-77
2021/03/04 00:22:28;;;;;;;97.88;36.40;;;3.40;97.60;;;;;;4952085;29;20046;-77
2021/03/04 00:24:54;;;;;;;77.50;32.65;;;3.40;97.70;;;;;;4950975;28;20039;-77
2021/03/04 00:27:39;;;;;;;79.30;33.38;;;3.40;97.60;;;;;;4952078;29;20162;-77
2021/03/04 00:30:06;;;;;;;85.93;34.38;;;3.40;97.70;;;;;;4951798;28;20134;-77
2021/03/04 00:32:32;;;;;;;78.22;33.38;;;3.30;97.70;;;;;;4948262;28;20051;-77
2021/03/04 00:34:58;;;;;;;80.82;33.20;;;3.40;97.60;;;;;;4951752;28;20060;-77
2021/03/04 00:37:24;;;;;;;88.07;35.75;;;3.30;97.60;;;;;;4950763;29;20412;-77
2021/03/04 00:39:50;;;;;;;84.25;33.47;;;3.40;97.70;;;;;;4934085;29;20075;-77
2021/03/04 00:42:15;;;;;;;89.63;35.70;;;3.40;97.70;;;;;;4949944;29;20131;-77
2021/03/04 00:44:42;;;;;;;83.95;33.13;;;3.40;97.60;;;;;;4951514;28;20050;-77
2021/03/04 00:47:07;;;;;;;73.53;30.73;;;3.40;97.70;;;;;;4952026;28;20043;-77
2021/03/04 00:49:33;;;;;;;58.72;26.40;;;3.30;97.60;;;;;;4950861;28;20097;-77
2021/03/04 00:51:59;;;;;;;59.67;28.30;;;3.30;97.50;;;;;;4948715;29;20106;-77
2021/03/04 00:54:25;;;;;;;72.10;29.05;;;3.40;97.40;;;;;;4951383;28;20039;-77
2021/03/04 00:56:51;;;;;;;80.25;30.80;;;3.30;97.30;;;;;;4949564;28;20027;-77
2021/03/04 00:59:16;;;;;;;72.55;30.98;;;3.30;97.30;;;;;;4950615;28;20040;-77
2021/03/04 01:01:42;;;;;;;78.82;30.95;;;3.30;97.30;;;;;;4947863;28;20468;-77
2021/03/04 01:04:08;;;;;;;74.07;31.38;;;3.40;97.30;;;;;;4949764;28;20045;-77
2021/03/04 01:06:34;;;;;;;79.60;29.92;;;3.40;97.30;;;;;;4952055;28;20456;-77
2021/03/04 01:08:59;;;;;;;76.07;30.30;;;3.30;97.30;;;;;;4949644;28;20584;-77
2021/03/04 01:11:25;;;;;;;70.68;28.58;;;3.40;97.40;;;;;;4950689;28;20463;-77
2021/03/04 01:13:52;;;;;;;71.60;29.10;;;3.40;97.40;;;;;;4949595;29;20356;-77
2021/03/04 01:16:17;;;;;;;71.45;31.05;;;3.40;97.30;;;;;;4953952;28;20043;-77
2021/03/04 01:18:43;;;;;;;64.57;29.40;;;3.40;97.30;;;;;;4952564;28;20054;-77
2021/03/04 01:21:09;;;;;;;68.32;30.38;;;3.40;97.20;;;;;;4954786;28;20081;-77
2021/03/04 01:23:35;;;;;;;73.05;30.10;;;3.40;97.30;;;;;;4934465;29;20055;-77
2021/03/04 01:26:01;;;;;;;80.07;30.70;;;3.40;97.40;;;;;;4955573;28;20196;-77
2021/03/04 01:28:28;;;;;;;70.53;29.45;;;3.40;97.30;;;;;;4953600;29;20031;-77
2021/03/04 01:30:54;;;;;;;72.43;29.55;;;3.40;97.40;;;;;;4954509;28;20042;-77
2021/03/04 01:33:20;;;;;;;76.60;28.67;;;3.40;97.30;;;;;;4951834;28;20058;-76
2021/03/04 01:35:47;;;;;;;85.18;29.25;;;3.40;97.40;;;;;;4955159;28;20039;-77
2021/03/04 01:38:13;;;;;;;77.85;26.30;;;3.40;97.30;;;;;;4952862;28;21313;-77
2021/03/04 01:40:39;;;;;;;68.57;26.95;;;3.40;97.40;;;;;;4955390;28;20039;-77
2021/03/04 01:43:05;;;;;;;67.82;24.67;;;3.30;97.40;;;;;;4954206;29;20411;-77
2021/03/04 01:45:31;;;;;;;57.85;23.85;;;3.30;97.30;;;;;;4936076;28;20424;-77
2021/03/04 01:47:57;;;;;;;57.17;22.27;;;3.20;97.30;;;;;;4947773;28;20039;-77
2021/03/04 01:50:25;;;;;;;56.85;22.73;;;3.30;97.20;;;;;;4953036;29;20050;-77
2021/03/04 01:52:52;;;;;;;54.38;23.13;;;3.20;97.20;;;;;;4954243;29;20492;-77
2021/03/04 01:55:19;;;;;;;51.40;20.30;;;3.20;97.30;;;;;;4952538;28;20067;-77
2021/03/04 01:57:46;;;;;;;51.45;20.88;;;3.20;97.30;;;;;;4954502;28;20078;-77
2021/03/04 02:00:14;;;;;;;48.30;20.17;;;3.20;97.20;;;;;;4952788;28;20035;-77
2021/03/04 02:02:40;;;;;;;54.53;21.90;;;3.20;97.30;;;;;;4951442;28;20476;-77
2021/03/04 02:05:08;;;;;;;58.20;21.38;;;3.20;97.40;;;;;;4952245;28;20035;-77
2021/03/04 02:07:36;;;;;;;56.05;21.90;;;3.20;97.30;;;;;;4953150;28;20430;-77
2021/03/04 02:10:32;;;;;;;58.40;23.10;;;3.20;97.30;;;;;;4953428;29;20141;-77
2021/03/04 02:13:20;;;;;;;53.53;20.05;;;3.20;97.40;;;;;;4950983;29;20106;-77
2021/03/04 02:15:54;;;;;;;51.67;20.83;;;3.20;97.40;;;;;;4935019;29;20051;-77
2021/03/04 02:18:24;;;;;;;43.35;19.50;;;3.20;97.40;;;;;;4953501;29;20043;-77
2021/03/04 02:21:13;;;;;;;44.10;19.13;;;3.20;97.40;;;;;;4935950;29;20130;-77
2021/03/04 02:24:12;;;;;;;51.10;19.80;;;3.20;97.30;;;;;;4949973;29;20042;-77
2021/03/04 02:27:16;;;;;;;48.22;19.80;;;3.20;97.40;;;;;;4925065;28;20070;-77
2021/03/04 02:30:07;;;;;;;55.10;20.20;;;3.20;97.40;;;;;;4955269;29;20046;-77
2021/03/04 02:32:36;;;;;;;54.40;21.30;;;3.20;97.50;;;;;;4949895;29;20513;-77
2021/03/04 02:35:21;;;;;;;51.17;20.67;;;3.20;97.40;;;;;;4936500;29;20066;-77
2021/03/04 02:37:52;;;;;;;48.03;18.27;;;3.20;97.30;;;;;;4952842;29;20223;-77
2021/03/04 02:40:21;;;;;;;46.47;18.95;;;3.20;97.30;;;;;;4953165;29;20043;-77
2021/03/04 02:42:49;;;;;;;43.63;18.88;;;3.20;97.30;;;;;;4953002;29;20137;-77
2021/03/04 02:45:16;;;;;;;47.25;18.88;;;3.20;97.20;;;;;;4936554;29;20062;-77
2021/03/04 02:47:43;;;;;;;45.92;19.42;;;3.20;97.20;;;;;;4951366;29;20039;-77
2021/03/04 02:50:10;;;;;;;44.47;18.70;;;3.20;97.30;;;;;;4952637;29;20070;-77
2021/03/04 02:52:38;;;;;;;43.03;17.92;;;3.20;97.30;;;;;;4951113;29;20162;-77
2021/03/04 02:55:06;;;;;;;46.53;19.30;;;3.20;97.20;;;;;;4954294;29;20051;-77
2021/03/04 02:57:33;;;;;;;45.20;19.58;;;3.20;97.20;;;;;;4951858;29;20047;-77
2021/03/04 03:00:00;;;;;;;44.92;18.20;;;3.20;97.20;;;;;;4953823;29;20360;-77
2021/03/04 03:02:28;;;;;;;42.45;19.33;;;3.30;97.20;;;;;;4951300;29;20118;-77
2021/03/04 03:04:56;;;;;;;46.05;19.48;;;3.20;97.20;;;;;;4954856;28;20455;-77
2021/03/04 03:07:23;;;;;;;46.13;20.13;;;3.20;97.20;;;;;;4952008;29;20046;-77
2021/03/04 03:09:49;;;;;;;47.70;18.70;;;3.30;97.20;;;;;;4952639;29;20408;-77
2021/03/04 03:12:18;;;;;;;51.22;19.67;;;3.30;97.20;;;;;;4950400;29;20143;-77
2021/03/04 03:14:44;;;;;;;49.35;19.60;;;3.30;97.30;;;;;;4954485;29;20101;-77
2021/03/04 03:17:10;;;;;;;44.55;18.08;;;3.30;97.30;;;;;;4932503;29;20059;-77
2021/03/04 03:19:36;;;;;;;43.35;17.75;;;3.30;97.20;;;;;;4952895;28;20062;-77
2021/03/04 03:22:02;;;;;;;49.22;18.77;;;3.30;97.20;;;;;;4950859;28;20098;-77
2021/03/04 03:24:29;;;;;;;52.60;19.45;;;3.30;97.20;;;;;;4952589;29;20090;-77
2021/03/04 03:26:54;;;;;;;49.78;19.33;;;3.30;97.30;;;;;;4951635;29;20070;-77
2021/03/04 03:29:21;;;;;;;58.88;21.40;;;3.30;97.30;;;;;;4951514;29;20081;-77
2021/03/04 03:31:56;;;;;;;54.63;20.75;;;3.30;97.50;;;;;;4934207;29;20070;-77
2021/03/04 03:34:23;;;;;;;52.47;20.55;;;3.30;97.40;;;;;;4933956;29;20051;-77
2021/03/04 03:36:49;;;;;;;52.33;21.20;;;3.30;97.40;;;;;;4953255;28;20090;-77
2021/03/04 03:39:15;;;;;;;50.13;20.83;;;3.30;97.30;;;;;;4949665;28;20460;-77
2021/03/04 03:41:42;;;;;;;46.15;19.67;;;3.40;97.30;;;;;;4952257;28;20050;-77
2021/03/04 03:44:09;;;;;;;51.70;21.13;;;3.30;97.30;;;;;;4933745;29;20061;-77
2021/03/04 03:46:37;;;;;;;53.60;21.00;;;3.40;97.40;;;;;;4951469;28;20043;-77
2021/03/04 03:49:04;;;;;;;50.72;21.88;;;3.40;97.40;;;;;;4950972;29;20038;-77
2021/03/04 03:51:34;;;;;;;54.00;21.25;;;3.40;97.40;;;;;;4952075;28;20043;-77
2021/03/04 03:54:03;;;;;;;49.55;19.48;;;3.40;97.40;;;;;;4944509;29;20515;-77
2021/03/04 03:56:30;;;;;;;37.00;18.65;;;3.40;97.40;;;;;;4952692;29;20039;-77
2021/03/04 03:59:05;;;;;;;40.60;18.73;;;3.30;97.30;;;;;;5135304;27;20374;-76
2021/03/04 04:01:34;;;;;;;44.75;19.42;;;3.40;97.20;;;;;;5116084;27;20028;-76
2021/03/04 04:04:01;;;;;;;44.95;20.52;;;3.40;97.20;;;;;;5116592;28;20047;-76
2021/03/04 04:06:31;;;;;;;42.47;21.02;;;3.40;97.20;;;;;;5125551;27;20207;-76
2021/03/04 04:08:58;;;;;;;42.08;19.83;;;3.40;97.30;;;;;;5126626;28;20108;-76
2021/03/04 04:11:25;;;;;;;45.83;20.73;;;3.40;97.20;;;;;;5122757;28;20059;-76
2021/03/04 04:13:52;;;;;;;46.95;21.10;;;3.40;97.30;;;;;;5128036;28;20054;-76
2021/03/04 04:16:18;;;;;;;51.55;22.52;;;3.50;97.20;;;;;;5120152;27;20042;-76
2021/03/04 04:18:46;;;;;;;50.88;21.88;;;3.50;97.20;;;;;;5125430;28;20336;-76
2021/03/04 04:21:13;;;;;;;52.63;21.50;;;3.50;97.20;;;;;;5124547;27;20058;-76
2021/03/04 04:23:42;;;;;;;46.28;21.45;;;3.50;97.60;;;;;;5124524;28;20032;-76
2021/03/04 04:26:08;;;;;;;51.17;22.27;;;3.50;97.30;;;;;;5126276;27;20119;-76
2021/03/04 04:28:34;;;;;;;52.17;22.25;;;3.50;97.20;;;;;;5125433;27;20067;-76
2021/03/04 04:31:00;;;;;;;51.97;21.80;;;3.50;97.20;;;;;;5118509;27;20125;-76
2021/03/04 04:33:25;;;;;;;60.67;23.60;;;3.50;97.20;;;;;;5123262;28;20491;-76
2021/03/04 04:35:52;;;;;;;65.65;25.00;;;3.50;97.30;;;;;;5121120;27;20040;-76
2021/03/04 04:38:18;;;;;;;58.78;23.48;;;3.60;97.30;;;;;;5114606;27;20406;-77
2021/03/04 04:40:44;;;;;;;52.25;23.75;;;3.60;97.40;;;;;;5118369;27;20095;-77
2021/03/04 04:43:10;;;;;;;58.67;23.42;;;3.60;97.40;;;;;;5126672;27;20055;-77
2021/03/04 04:45:36;;;;;;;50.58;22.60;;;3.50;97.40;;;;;;5120329;27;20063;-76
2021/03/04 04:48:02;;;;;;;53.47;21.67;;;3.60;97.50;;;;;;5121039;28;20074;-76
2021/03/04 04:50:28;;;;;;;46.88;21.42;;;3.60;97.70;;;;;;5123545;27;20048;-76
2021/03/04 04:52:54;;;;;;;45.85;20.33;;;3.50;97.30;;;;;;5117181;27;20088;-76
2021/03/04 04:55:20;;;;;;;50.85;20.15;;;3.50;97.30;;;;;;5126818;27;20070;-76
2021/03/04 04:57:46;;;;;;;50.08;21.38;;;3.50;97.30;;;;;;5116600;27;20067;-77
2021/03/04 05:00:12;;;;;;;48.22;20.95;;;3.50;97.20;;;;;;5123314;27;20103;-77
2021/03/04 05:02:39;;;;;;;48.78;20.10;;;3.50;97.20;;;;;;5113043;27;20119;-77
2021/03/04 05:05:07;;;;;;;54.70;21.10;;;3.50;97.20;;;;;;5119942;27;20130;-77
2021/03/04 05:07:33;;;;;;;48.97;21.35;;;3.50;97.30;;;;;;5117340;27;20032;-77
2021/03/04 05:09:59;;;;;;;50.15;21.45;;;3.50;97.20;;;;;;5116429;28;20100;-77
2021/03/04 05:12:26;;;;;;;51.63;21.30;;;3.50;97.60;;;;;;5104045;28;20040;-77
2021/03/04 05:14:52;;;;;;;44.63;21.02;;;3.50;97.30;;;;;;5109388;28;20043;-77
2021/03/04 05:17:19;;;;;;;45.83;20.08;;;3.50;97.30;;;;;;5107320;28;20036;-77
2021/03/04 05:19:45;;;;;;;34.40;18.20;;;3.50;97.30;;;;;;5102922;28;20438;-77
2021/03/04 05:22:11;;;;;;;32.95;16.80;;;3.50;97.20;;;;;;5103651;28;20102;-77
2021/03/04 05:24:37;;;;;;;31.48;16.23;;;3.50;97.20;;;;;;5110615;28;20048;-77
2021/03/04 05:27:03;;;;;;;25.77;14.15;;;3.40;97.10;;;;;;5109619;27;20128;-77
2021/03/04 05:29:29;;;;;;;24.73;13.48;;;3.40;97.10;;;;;;5112063;28;20032;-77
2021/03/04 05:31:55;;;;;;;25.15;13.90;;;3.30;97.00;;;;;;5104242;28;20040;-77
2021/03/04 05:34:21;;;;;;;24.15;14.82;;;3.30;97.00;;;;;;5102462;28;20111;-77
2021/03/04 05:36:47;;;;;;;23.50;13.63;;;3.30;96.90;;;;;;5111641;28;20149;-77
2021/03/04 05:39:13;;;;;;;27.23;15.27;;;3.30;97.00;;;;;;5109330;27;20108;-77
2021/03/04 05:41:40;;;;;;;24.55;13.82;;;3.30;97.00;;;;;;5097321;28;20133;-77
2021/03/04 05:44:06;;;;;;;27.40;15.23;;;3.30;97.00;;;;;;5109910;28;20039;-77
2021/03/04 05:46:34;;;;;;;25.38;14.55;;;3.30;97.00;;;;;;5111506;28;20031;-76
2021/03/04 05:49:01;;;;;;;28.35;15.77;;;3.30;96.90;;;;;;5095696;28;20108;-76
2021/03/04 05:51:31;;;;;;;27.02;14.10;;;3.30;97.00;;;;;;5112477;27;20055;-77
2021/03/04 05:53:58;;;;;;;30.70;14.93;;;3.30;97.00;;;;;;5107814;28;20047;-78
2021/03/04 05:56:25;;;;;;;31.80;16.10;;;3.30;97.20;;;;;;5108960;28;20036;-77
2021/03/04 05:58:52;;;;;;;32.75;16.95;;;3.30;97.00;;;;;;5104161;28;20051;-76
2021/03/04 06:01:19;;;;;;;29.08;16.10;;;3.30;97.10;;;;;;5092870;28;20039;-76
2021/03/04 06:03:46;;;;;;;34.03;16.60;;;3.30;97.10;;;;;;5108841;27;20494;-76
2021/03/04 06:06:12;;;;;;;33.53;16.42;;;3.30;97.10;;;;;;5112816;28;20035;-76
2021/03/04 06:08:38;;;;;;;32.70;15.70;;;3.20;97.20;;;;;;5108010;28;20339;-77
2021/03/04 06:11:05;;;;;;;27.05;14.02;;;3.20;97.10;;;;;;5111139;28;20121;-77
2021/03/04 06:13:31;;;;;;;31.45;16.77;;;3.20;97.10;;;;;;5104331;27;20039;-76
2021/03/04 06:16:00;;;;;;;27.23;14.65;;;3.20;97.10;;;;;;5099647;28;20420;-78
2021/03/04 06:18:44;;;;;;;25.25;13.60;;;3.20;97.10;;;;;;5111971;28;20471;-78
2021/03/04 06:21:21;;;;;;;23.52;13.00;;;3.20;97.00;;;;;;5110535;28;20067;-77
2021/03/04 06:23:47;;;;;;;24.73;12.68;;;3.10;97.00;;;;;;5109723;28;20108;-76
2021/03/04 06:26:28;;;;;;;25.17;13.55;;;3.10;97.10;;;;;;5109864;28;20043;-76
2021/03/04 06:28:55;;;;;;;25.85;12.88;;;3.10;97.00;;;;;;5110437;28;20050;-76
2021/03/04 06:31:21;;;;;;;24.13;12.55;;;3.10;97.10;;;;;;5100454;28;20556;-77
2021/03/04 06:33:48;;;;;;;25.48;13.77;;;3.10;97.10;;;;;;5107325;28;20467;-77
2021/03/04 06:36:15;;;;;;;21.90;12.40;;;3.10;97.10;;;;;;5108087;27;20523;-77
2021/03/04 06:38:52;;;;;;;18.73;11.27;;;3.10;97.10;;;;;;5111411;28;20035;-77
2021/03/04 06:41:19;;;;;;;23.00;12.55;;;3.10;97.10;;;;;;5102356;28;20040;-77
2021/03/04 06:43:45;;;;;;;21.48;12.80;;;3.10;97.10;;;;;;5112071;28;20040;-77
2021/03/04 06:46:12;;;;;;;23.25;13.32;;;3.10;97.10;;;;;;5104696;28;20046;-75
2021/03/04 06:48:38;;;;;;;20.38;12.00;;;3.10;97.10;;;;;;5107487;28;20498;-77
2021/03/04 06:51:06;;;;;;;20.38;12.07;;;3.10;97.20;;;;;;5101512;28;20391;-77
2021/03/04 06:53:32;;;;;;;20.42;12.63;;;3.10;97.10;;;;;;5110793;28;20039;-77
2021/03/04 06:56:06;;;;;;;22.10;12.52;;;3.00;97.00;;;;;;5105572;28;20528;-77
2021/03/04 06:58:39;;;;;;;23.27;12.32;;;3.10;97.00;;;;;;5109663;28;20058;-78
2021/03/04 07:01:18;;;;;;;18.88;11.68;;;3.20;97.00;;;;;;5103055;28;20479;-78
2021/03/04 07:03:51;;;;;;;19.85;11.52;;;3.10;97.00;;;;;;5111212;28;20155;-77
2021/03/04 07:06:22;;;;;;;21.77;12.65;;;3.10;97.20;;;;;;5104771;28;20394;-78
2021/03/04 07:08:51;;;;;;;23.67;12.75;;;3.10;97.20;;;;;;5102777;28;20051;-78
2021/03/04 07:11:22;;;;;;;22.98;12.55;;;3.20;97.20;;;;;;5103084;28;20481;-77
2021/03/04 07:13:49;;;;;;;22.45;13.20;;;3.20;97.20;;;;;;5109473;28;20032;-77
2021/03/04 07:16:19;;;;;;;24.92;13.65;;;3.20;97.10;;;;;;5107161;28;20070;-77
2021/03/04 07:18:55;;;;;;;28.05;13.57;;;3.20;97.20;;;;;;5111021;28;20400;-77
2021/03/04 07:21:23;;;;;;;28.10;13.90;;;3.20;97.30;;;;;;5108212;28;20043;-77
2021/03/04 07:23:50;;;;;;;24.98;13.20;;;3.20;97.20;;;;;;5110709;28;20424;-77
2021/03/04 07:26:17;;;;;;;21.15;12.55;;;3.20;97.20;;;;;;5109802;27;20142;-77
2021/03/04 07:28:44;;;;;;;22.70;12.48;;;3.20;97.20;;;;;;5109286;28;20043;-77
2021/03/04 07:31:11;;;;;;;25.05;12.57;;;3.30;97.30;;;;;;5110494;28;20089;-77
2021/03/04 07:33:41;;;;;;;24.33;13.32;;;3.30;97.40;;;;;;5108570;28;20078;-77
2021/03/04 07:36:09;;;;;;;23.05;13.32;;;3.40;97.50;;;;;;5110110;28;20052;-78
2021/03/04 07:38:36;;;;;;;22.20;13.40;;;3.50;97.40;;;;;;5103205;28;20043;-77
2021/03/04 07:41:13;;;;;;;27.92;13.82;;;3.50;97.40;;;;;;5111239;28;20486;-77
2021/03/04 07:43:44;;;;;;;23.38;14.02;;;3.50;97.40;;;;;;5108054;28;20044;-77
2021/03/04 07:46:10;;;;;;;22.10;13.82;;;3.60;97.40;;;;;;5109473;28;20112;-77
2021/03/04 07:48:46;;;;;;;20.27;12.95;;;3.60;97.30;;;;;;5106553;28;20135;-77
2021/03/04 07:51:12;;;;;;;20.58;12.48;;;3.60;97.20;;;;;;5098641;28;20038;-77
2021/03/04 07:53:43;;;;;;;19.08;12.10;;;3.70;97.30;;;;;;5108746;28;20491;-77
2021/03/04 07:56:08;;;;;;;20.63;13.20;;;3.70;97.10;;;;;;5107783;28;20036;-77
2021/03/04 07:58:38;;;;;;;22.23;13.00;;;3.70;97.20;;;;;;5101109;28;20124;-77
2021/03/04 08:01:11;;;;;;;18.33;12.27;;;3.70;97.10;;;;;;5103139;28;20039;-77
2021/03/04 08:03:50;;;;;;;21.10;12.35;;;3.70;97.00;;;;;;5102577;28;20059;-78
2021/03/04 08:06:17;;;;;;;18.38;11.45;;;3.80;97.10;;;;;;5104308;28;20103;-77
2021/03/04 08:08:47;;;;;;;19.63;12.82;;;3.80;97.30;;;;;;5102189;28;20036;-77
2021/03/04 08:11:27;;;;;;;20.85;12.63;;;3.80;96.90;;;;;;5101586;28;20054;-77
2021/03/04 08:13:53;;;;;;;19.70;12.70;;;3.80;96.90;;;;;;5102833;28;20527;-77
2021/03/04 08:16:20;;;;;;;21.63;12.95;;;3.90;97.00;;;;;;5096582;28;20043;-77
2021/03/04 08:18:59;;;;;;;19.10;11.85;;;3.90;97.00;;;;;;5100892;28;20103;-77
2021/03/04 08:21:25;;;;;;;18.00;11.57;;;3.90;96.80;;;;;;5104042;28;21155;-77
2021/03/04 08:23:52;;;;;;;18.20;12.32;;;3.90;97.00;;;;;;5105455;28;20055;-77
2021/03/04 08:26:24;;;;;;;18.15;12.70;;;3.90;96.80;;;;;;5093820;28;20048;-78
2021/03/04 08:29:05;;;;;;;15.85;11.77;;;3.90;96.90;;;;;;5098350;28;20126;-77
2021/03/04 08:31:32;;;;;;;18.98;12.50;;;3.90;96.80;;;;;;5094967;28;20036;-77
2021/03/04 08:33:59;;;;;;;18.42;11.88;;;3.90;96.70;;;;;;5099425;28;20092;-77
2021/03/04 08:36:26;;;;;;;17.95;11.65;;;3.90;96.70;;;;;;5096387;28;20096;-77
2021/03/04 08:38:52;;;;;;;17.83;12.18;;;3.90;96.70;;;;;;5101070;28;20036;-77
2021/03/04 08:41:22;;;;;;;18.70;12.38;;;4.00;96.60;;;;;;5103823;28;20403;-77
2021/03/04 08:43:49;;;;;;;20.92;13.68;;;4.00;96.60;;;;;;5109035;28;20143;-76
2021/03/04 08:46:18;;;;;;;16.65;12.02;;;4.00;96.70;;;;;;5103333;27;20477;-76
2021/03/04 08:48:47;;;;;;;17.75;12.68;;;4.10;96.60;;;;;;5104512;28;20039;-76
2021/03/04 08:51:14;;;;;;;17.05;11.93;;;4.10;96.60;;;;;;5104123;28;20124;-77
2021/03/04 08:53:40;;;;;;;21.40;12.60;;;4.10;96.50;;;;;;5112235;28;20040;-76
2021/03/04 08:56:08;;;;;;;17.52;11.75;;;4.10;96.40;;;;;;5105802;27;20089;-76
2021/03/04 08:58:42;;;;;;;18.80;11.68;;;4.20;96.40;;;;;;5108993;28;20067;-77
2021/03/04 09:01:09;;;;;;;20.53;11.70;;;4.20;96.40;;;;;;5101858;27;20048;-78
2021/03/04 09:03:42;;;;;;;18.17;11.35;;;4.20;96.30;;;;;;5108523;28;20273;-77
2021/03/04 09:06:09;;;;;;;16.00;11.02;;;4.20;96.20;;;;;;5106769;27;20051;-77
2021/03/04 09:08:46;;;;;;;17.77;11.57;;;4.20;96.20;;;;;;5108641;27;20063;-77
2021/03/04 09:11:29;;;;;;;17.95;11.63;;;4.30;96.10;;;;;;5101710;28;20062;-78
2021/03/04 09:14:09;;;;;;;15.38;10.38;;;4.20;96.20;;;;;;5102616;28;20144;-76
2021/03/04 09:16:48;;;;;;;16.38;11.43;;;4.30;96.10;;;;;;5102249;28;20142;-77
2021/03/04 09:19:39;;;;;;;14.10;9.82;;;4.20;96.40;;;;;;5102008;28;20079;-76
2021/03/04 09:22:14;;;;;;;14.60;9.73;;;4.30;96.00;;;;;;5096039;28;20051;-77
2021/03/04 09:24:40;;;;;;;13.80;10.05;;;4.30;96.10;;;;;;5110878;28;20066;-77
2021/03/04 09:27:08;;;;;;;13.55;10.07;;;4.30;96.10;;;;;;5091733;28;20058;-78
2021/03/04 09:29:38;;;;;;;14.48;9.63;;;4.30;95.90;;;;;;5111859;28;20047;-80
2021/03/04 09:32:04;;;;;;;12.88;9.65;;;4.30;95.80;;;;;;5107287;28;20057;-79
2021/03/04 09:34:38;;;;;;;14.07;9.88;;;4.30;95.70;;;;;;5099440;28;20436;-76
2021/03/04 09:37:15;;;;;;;11.13;8.60;;;4.40;95.70;;;;;;5098984;28;20056;-78
2021/03/04 09:39:46;;;;;;;14.70;9.13;;;4.40;95.80;;;;;;5108290;28;20039;-76
2021/03/04 09:42:15;;;;;;;14.15;10.40;;;4.40;95.80;;;;;;5090589;28;20040;-77
2021/03/04 09:44:55;;;;;;;12.57;8.82;;;4.50;95.80;;;;;;5111024;28;20036;-77
2021/03/04 09:47:27;;;;;;;13.35;9.15;;;4.60;95.80;;;;;;5105817;28;20046;-78
2021/03/04 09:49:58;;;;;;;15.18;10.27;;;4.60;95.40;;;;;;5105641;28;20040;-78
2021/03/04 09:52:31;;;;;;;11.25;8.77;;;4.60;95.60;;;;;;5109261;28;20115;-77
2021/03/04 09:55:33;;;;;;;11.63;8.07;;;4.70;95.50;;;;;;5109126;28;20042;-77
2021/03/04 09:58:12;;;;;;;12.07;8.30;;;4.70;94.80;;;;;;5099677;27;20126;-77
2021/03/04 10:00:38;;;;;;;11.73;8.52;;;4.70;95.10;;;;;;5109708;28;20036;-77
2021/03/04 10:03:09;;;;;;;13.20;8.38;;;4.70;95.30;;;;;;5102637;28;20042;-77
2021/03/04 10:05:48;;;;;;;12.23;8.27;;;4.80;95.50;;;;;;5107719;28;20036;-79
2021/03/04 10:08:15;;;;;;;9.68;7.75;;;4.80;95.00;;;;;;5101588;28;20032;-78
2021/03/04 10:10:43;;;;;;;10.48;7.45;;;4.80;95.10;;;;;;5102534;28;20036;-78
2021/03/04 10:13:10;;;;;;;9.73;7.55;;;4.90;95.10;;;;;;5104499;27;20486;-75
2021/03/04 10:15:38;;;;;;;11.25;8.23;;;4.90;94.90;;;;;;5107529;28;20034;-75
2021/03/04 10:18:12;;;;;;;13.02;7.97;;;4.90;94.80;;;;;;5107554;27;20058;-76
2021/03/04 10:20:46;;;;;;;11.15;8.27;;;5.00;94.70;;;;;;5109302;28;20032;-76
2021/03/04 10:23:13;;;;;;;14.48;9.93;;;4.90;94.60;;;;;;5103141;27;20116;-76
2021/03/04 10:25:40;;;;;;;13.82;9.18;;;5.00;94.80;;;;;;5109249;28;20435;-76
2021/03/04 10:28:06;;;;;;;13.15;8.75;;;5.10;95.10;;;;;;5105816;28;20249;-75
2021/03/04 10:30:34;;;;;;;11.73;8.93;;;5.10;94.90;;;;;;5105681;27;20090;-75
2021/03/04 10:33:01;;;;;;;12.70;8.52;;;5.10;94.80;;;;;;5098307;28;20418;-76
2021/03/04 10:35:27;;;;;;;12.93;9.18;;;5.20;94.60;;;;;;5100044;28;20044;-77
2021/03/04 10:37:53;;;;;;;10.75;8.55;;;5.20;94.70;;;;;;5107190;28;20042;-77
2021/03/04 10:40:20;;;;;;;12.50;7.82;;;5.20;94.60;;;;;;5105937;27;20046;-76
2021/03/04 10:42:46;;;;;;;14.20;9.15;;;5.20;94.40;;;;;;5106618;28;20402;-76
2021/03/04 10:45:14;;;;;;;11.82;8.85;;;5.20;94.50;;;;;;5108337;28;20142;-76
2021/03/04 10:47:41;;;;;;;10.75;8.50;;;5.10;94.40;;;;;;5103837;28;20106;-76
2021/03/04 10:50:10;;;;;;;11.73;8.52;;;5.10;94.50;;;;;;5102968;28;20035;-76
2021/03/04 10:52:36;;;;;;;11.73;7.60;;;5.20;94.70;;;;;;5109652;28;20066;-77
2021/03/04 10:55:03;;;;;;;14.48;9.57;;;5.30;94.80;;;;;;5102166;28;20471;-77
2021/03/04 10:57:30;;;;;;;10.77;8.48;;;5.40;94.60;;;;;;5106821;28;20456;-77
2021/03/04 10:59:56;;;;;;;13.63;8.63;;;5.40;94.60;;;;;;5120935;27;20543;-77
2021/03/04 11:02:22;;;;;;;11.93;8.40;;;5.50;94.50;;;;;;5104982;28;20039;-77
2021/03/04 11:04:48;;;;;;;9.85;7.57;;;5.50;94.30;;;;;;5098925;28;20151;-77
2021/03/04 11:07:14;;;;;;;8.35;6.45;;;5.50;94.20;;;;;;5108230;28;20096;-77
2021/03/04 11:09:40;;;;;;;9.18;5.60;;;5.50;93.80;;;;;;5108632;28;20100;-77
2021/03/04 11:12:07;;;;;;;7.13;6.28;;;5.50;93.50;;;;;;5107183;28;20632;-77
2021/03/04 11:14:37;;;;;;;9.10;5.90;;;5.50;93.50;;;;;;5102049;28;20040;-77
2021/03/04 11:17:03;;;;;;;8.65;6.05;;;5.50;93.70;;;;;;5106612;28;20036;-77
2021/03/04 11:19:31;;;;;;;9.02;6.65;;;5.50;93.60;;;;;;5102994;28;20046;-78
2021/03/04 11:21:56;;;;;;;7.95;6.05;;;5.60;93.50;;;;;;5104466;28;20039;-75
2021/03/04 11:24:22;;;;;;;8.95;6.25;;;5.70;93.70;;;;;;5108803;28;20039;-75
2021/03/04 11:26:48;;;;;;;8.13;6.18;;;5.80;93.30;;;;;;5106565;28;20035;-77
2021/03/04 11:29:14;;;;;;;11.68;6.45;;;5.70;93.20;;;;;;5104390;28;20497;-76
2021/03/04 11:31:39;;;;;;;11.20;6.50;;;5.90;93.10;;;;;;5098035;28;20464;-75
2021/03/04 11:34:06;;;;;;;9.55;6.50;;;5.90;92.90;;;;;;5105911;28;20709;-75
2021/03/04 11:36:33;;;;;;;9.45;5.82;;;5.90;93.00;;;;;;5103446;28;20044;-75
2021/03/04 11:38:59;;;;;;;9.40;5.78;;;6.00;93.10;;;;;;5101327;28;20066;-75
2021/03/04 11:41:26;;;;;;;9.90;5.15;;;6.10;93.10;;;;;;5101296;28;20478;-76
2021/03/04 11:43:52;;;;;;;8.90;6.03;;;6.10;92.70;;;;;;5107305;28;20036;-76
2021/03/04 11:46:18;;;;;;;9.77;5.25;;;6.10;92.60;;;;;;5101507;28;20051;-75
2021/03/04 11:48:45;;;;;;;8.65;4.95;;;6.10;92.40;;;;;;5107696;28;20043;-75
2021/03/04 11:51:11;;;;;;;9.10;4.90;;;6.20;92.30;;;;;;5104664;28;20064;-75
2021/03/04 11:53:37;;;;;;;7.32;5.35;;;6.10;92.10;;;;;;5098581;28;20035;-76
2021/03/04 11:56:03;;;;;;;8.20;4.93;;;6.10;92.10;;;;;;5106346;28;20032;-76
2021/03/04 11:58:29;;;;;;;7.53;4.70;;;6.10;92.40;;;;;;5104763;28;20387;-74
2021/03/04 12:00:55;;;;;;;7.72;4.97;;;6.20;92.50;;;;;;5108982;28;20070;-75
2021/03/04 12:03:21;;;;;;;7.35;4.65;;;6.20;92.40;;;;;;5106756;28;20513;-75
2021/03/04 12:05:48;;;;;;;10.52;4.82;;;6.30;92.30;;;;;;5107826;28;20119;-75
2021/03/04 12:08:14;;;;;;;10.60;4.85;;;6.30;92.30;;;;;;5103999;28;20031;-75
2021/03/04 12:10:40;;;;;;;7.25;4.45;;;6.30;92.10;;;;;;5108375;28;20456;-75
2021/03/04 12:13:07;;;;;;;7.20;4.00;;;6.20;92.10;;;;;;5101768;28;20058;-76
2021/03/04 12:15:33;;;;;;;9.20;4.57;;;6.20;92.10;;;;;;5100582;28;20040;-75
2021/03/04 12:17:59;;;;;;;8.60;4.55;;;6.20;92.00;;;;;;5103758;28;20042;-75
2021/03/04 12:20:25;;;;;;;8.65;4.03;;;6.20;92.10;;;;;;5112850;28;20035;-75
2021/03/04 12:22:51;;;;;;;6.20;3.63;;;6.20;91.80;;;;;;5111479;28;20059;-74
2021/03/04 12:25:17;;;;;;;6.55;4.30;;;6.20;91.80;;;;;;5113318;28;20062;-77
2021/03/04 12:27:43;;;;;;;7.93;4.10;;;6.20;92.10;;;;;;5111357;28;20043;-76
2021/03/04 12:30:09;;;;;;;10.50;5.18;;;6.20;92.10;;;;;;5105986;28;20377;-75
2021/03/04 12:32:36;;;;;;;11.57;4.10;;;6.30;92.10;;;;;;5104757;28;20495;-76
2021/03/04 12:35:04;;;;;;;8.40;4.15;;;6.30;91.90;;;;;;5107013;28;20039;-77
2021/03/04 12:37:29;;;;;;;9.82;3.60;;;6.30;91.90;;;;;;5112127;28;20071;-76
2021/03/04 12:39:55;;;;;;;9.50;4.20;;;6.30;91.80;;;;;;5111967;28;20082;-76
2021/03/04 12:42:21;;;;;;;7.45;3.78;;;6.30;91.90;;;;;;5111167;28;20389;-77
2021/03/04 12:44:47;;;;;;;8.75;3.30;;;6.40;91.80;;;;;;5096829;27;20054;-76
2021/03/04 12:47:13;;;;;;;17.67;2.83;;;6.40;91.70;;;;;;5113750;28;20042;-75